Time;durP1;ratioP1;P1;durP2;ratioP2;P2;SDS_P1;SDS_P2;PMS_P1;PMS_P2;Temp;Humidity;BMP_temperature;BMP_pressure;BME280_temperature;BME280_humidity;BME280_pressure;Samples;Min_cycle;Max_cycle;Signal;HPM_P1;HPM_P2
2022/12/14 13:08:39;;;;;;;16.35;9.20;;;;;;;-0.76;79.79;100095.34;5108662;27;20716;-73
2022/12/14 13:11:15;;;;;;;17.02;10.13;;;;;;;-0.74;79.14;100103.16;5087401;28;20044;-74
2022/12/14 13:13:46;;;;;;;20.45;10.07;;;;;;;-0.73;77.62;100110.13;5086953;28;20111;-76
2022/12/14 13:16:30;;;;;;;18.45;10.05;;;;;;;-0.69;78.02;100107.94;5088646;28;20035;-74
2022/12/14 13:19:05;;;;;;;16.05;9.98;;;;;;;-0.69;77.44;100111.47;5089581;28;20039;-75
2022/12/14 13:21:41;;;;;;;16.02;9.73;;;;;;;-0.68;76.88;100112.28;5089053;28;20031;-75
2022/12/14 13:24:15;;;;;;;17.27;10.02;;;;;;;-0.68;75.25;100106.97;5122508;27;20036;-74
2022/12/14 13:27:03;;;;;;;15.23;9.77;;;;;;;-0.64;77.60;100109.09;5122539;28;20031;-74
2022/12/14 13:30:08;;;;;;;15.20;9.25;;;;;;;-0.60;77.52;100106.97;5088765;28;20371;-74
2022/12/14 13:32:57;;;;;;;18.20;9.60;;;;;;;-0.57;75.74;100115.41;5067748;28;20467;-75
2022/12/14 13:35:41;;;;;;;16.38;10.25;;;;;;;-0.54;76.10;100112.41;5089682;28;20028;-74
2022/12/14 13:38:50;;;;;;;17.08;10.80;;;;;;;-0.50;77.00;100104.09;5088205;28;20028;-74
2022/12/14 13:41:26;;;;;;;16.40;9.77;;;;;;;-0.49;75.99;100105.75;5122458;28;20036;-74
2022/12/14 13:44:01;;;;;;;17.60;9.90;;;;;;;-0.44;75.17;100114.03;5086176;28;20020;-74
2022/12/14 13:46:30;;;;;;;14.80;9.45;;;;;;;-0.43;75.50;100110.38;5089342;28;20027;-74
2022/12/14 13:49:03;;;;;;;17.80;10.85;;;;;;;-0.38;74.53;100118.66;5087762;28;20024;-73
2022/12/14 13:51:33;;;;;;;17.85;10.32;;;;;;;-0.38;74.28;100121.31;5089032;28;20024;-72
2022/12/14 13:54:01;;;;;;;19.35;10.82;;;;;;;-0.37;74.01;100120.31;5089026;28;20414;-74
2022/12/14 13:56:30;;;;;;;15.32;10.32;;;;;;;-0.34;73.83;100117.31;5089083;28;20032;-74
2022/12/14 13:58:57;;;;;;;15.68;10.48;;;;;;;-0.27;73.56;100123.63;5085140;28;20078;-74
2022/12/14 14:01:47;;;;;;;15.30;10.05;;;;;;;-0.25;74.48;100121.59;5085381;28;20067;-74
2022/12/14 14:04:15;;;;;;;20.08;10.60;;;;;;;-0.26;72.82;100121.78;5067905;28;20028;-74
2022/12/14 14:06:42;;;;;;;14.57;9.57;;;;;;;-0.28;71.48;100119.28;5078279;28;20102;-74
2022/12/14 14:09:33;;;;;;;19.50;11.05;;;;;;;-0.24;74.01;100120.63;5087146;28;20028;-73
2022/12/14 14:12:05;;;;;;;15.65;9.90;;;;;;;-0.23;72.09;100132.06;5071381;28;20071;-73
2022/12/14 14:15:06;;;;;;;14.30;9.40;;;;;;;-0.26;72.83;100125.25;5087555;28;20052;-72
2022/12/14 14:17:41;;;;;;;18.08;10.82;;;;;;;-0.24;73.18;100128.59;5065171;28;20032;-73
2022/12/14 14:20:44;;;;;;;19.13;10.35;;;;;;;-0.23;73.59;100124.94;5073731;28;20028;-72
2022/12/14 14:23:15;;;;;;;14.82;9.77;;;;;;;-0.27;70.64;100133.41;5073732;28;20103;-72
2022/12/14 14:25:51;;;;;;;15.90;8.85;;;;;;;-0.27;72.50;100136.06;5074902;28;20448;-73
2022/12/14 14:28:19;;;;;;;13.48;9.18;;;;;;;-0.30;71.82;100139.06;5071063;28;20693;-73
2022/12/14 14:30:56;;;;;;;18.13;10.18;;;;;;;-0.30;71.13;100137.25;5075047;28;20535;-73
2022/12/14 14:33:34;;;;;;;19.15;11.57;;;;;;;-0.31;71.57;100145.41;5073322;28;20456;-79
2022/12/14 14:36:16;;;;;;;26.45;16.92;;;;;;;-0.32;72.38;100136.59;5074476;28;20021;-76
2022/12/14 14:38:42;;;;;;;;;;;;;;;-0.23;76.01;100142.72;5075657;28;20107;-72
2022/12/14 14:41:11;;;;;;;18.98;10.15;;;;;;;-0.30;71.34;100142.56;5075065;28;19944;-74
2022/12/14 14:43:48;;;;;;;18.90;10.77;;;;;;;-0.32;71.67;100149.88;5074948;28;20021;-73
2022/12/14 14:46:14;;;;;;;18.48;11.70;;;;;;;-0.34;72.52;100151.88;5072326;28;20123;-76
2022/12/14 14:48:55;;;;;;;18.77;11.25;;;;;;;-0.33;71.88;100158.88;5073554;28;20115;-74
2022/12/14 14:51:34;;;;;;;21.85;10.95;;;;;;;-0.31;72.00;100158.69;5074761;28;20012;-75
2022/12/14 14:54:17;;;;;;;16.85;10.30;;;;;;;-0.28;73.43;100166.34;5074159;28;20036;-74
2022/12/14 14:56:44;;;;;;;18.10;10.15;;;;;;;-0.35;74.12;100163.50;5074495;28;20472;-74
2022/12/14 14:59:18;;;;;;;18.92;10.95;;;;;;;-0.36;74.98;100161.88;5071675;28;20395;-73
2022/12/14 15:01:52;;;;;;;19.92;10.48;;;;;;;-0.38;73.13;100167.34;5072063;28;20023;-73
2022/12/14 15:04:46;;;;;;;22.48;11.48;;;;;;;-0.37;73.98;100179.63;5073202;28;20455;-73
2022/12/14 15:07:17;;;;;;;23.63;11.27;;;;;;;-0.44;75.38;100173.34;5072849;28;20051;-72
2022/12/14 15:09:46;;;;;;;17.63;10.63;;;;;;;-0.48;75.92;100173.84;5071967;28;20123;-73
2022/12/14 15:12:42;;;;;;;16.63;10.65;;;;;;;-0.52;77.25;100177.84;5073637;28;20039;-72
2022/12/14 15:15:34;;;;;;;27.38;10.93;;;;;;;-0.56;78.85;100177.34;5074500;28;20056;-76
2022/12/14 15:18:14;;;;;;;;;;;;;;;-0.54;81.67;100184.16;5069112;28;20124;-77
2022/12/14 15:20:41;;;;;;;19.80;11.00;;;;;;;-0.69;80.51;100177.03;5074576;28;19919;-76
2022/12/14 15:23:06;;;;;;;31.63;11.75;;;;;;;-0.75;80.96;100178.56;5074197;28;20025;-77
2022/12/14 15:25:32;;;;;;;19.10;11.40;;;;;;;-0.81;82.09;100171.25;5073453;28;20020;-79
2022/12/14 15:28:04;;;;;;;24.15;11.40;;;;;;;-0.85;81.84;100177.88;5071900;28;20027;-73
2022/12/14 15:30:30;;;;;;;20.75;10.77;;;;;;;-0.86;79.66;100178.88;5072014;28;20063;-74
2022/12/14 15:33:16;;;;;;;24.02;11.07;;;;;;;-0.84;81.55;100182.22;5073709;28;20472;-76
2022/12/14 15:35:41;;;;;;;21.17;11.45;;;;;;;-0.91;82.94;100182.03;5072954;28;20087;-76
2022/12/14 15:38:17;;;;;;;22.52;12.45;;;;;;;-0.96;82.38;100195.00;5071729;28;20451;-75
2022/12/14 15:40:54;;;;;;;20.80;12.38;;;;;;;-0.97;81.95;100188.84;5070422;28;20021;-75
2022/12/14 15:43:21;;;;;;;19.88;11.73;;;;;;;-1.03;83.02;100196.66;5079751;28;20428;-77
2022/12/14 15:45:51;;;;;;;21.50;12.25;;;;;;;-1.08;84.12;100199.81;5085300;28;20024;-75
2022/12/14 15:48:33;;;;;;;22.17;12.70;;;;;;;-1.14;83.46;100203.13;5053501;28;20036;-76
2022/12/14 15:51:12;;;;;;;22.17;13.03;;;;;;;-1.20;83.12;100207.25;5058086;28;20371;-73
2022/12/14 15:53:51;;;;;;;20.85;12.85;;;;;;;-1.29;84.71;100195.78;5061690;28;20271;-77
2022/12/14 15:56:30;;;;;;;26.33;14.07;;;;;;;-1.27;84.55;100201.78;5061499;28;20048;-80
2022/12/14 15:59:16;;;;;;;32.45;15.57;;;;;;;-1.26;85.73;100203.41;5071789;28;20032;-76
2022/12/14 16:01:42;;;;;;;25.13;15.75;;;;;;;-1.26;86.11;100203.41;5061511;28;20400;-77
2022/12/14 16:04:14;;;;;;;32.47;16.98;;;;;;;-1.26;84.90;100208.72;5067903;28;20035;-77
2022/12/14 16:06:44;;;;;;;27.73;15.80;;;;;;;-1.30;86.31;100215.38;5072970;28;20485;-76
2022/12/14 16:09:37;;;;;;;26.52;16.08;;;;;;;-1.32;86.39;100213.88;5067195;28;20363;-77
2022/12/14 16:12:08;;;;;;;31.27;16.00;;;;;;;-1.46;85.52;100216.16;5069515;28;20177;-76
2022/12/14 16:14:43;;;;;;;27.70;15.77;;;;;;;-1.51;86.72;100213.19;5071516;28;20143;-77
2022/12/14 16:17:12;;;;;;;35.20;19.92;;;;;;;-1.54;87.99;100218.81;5073124;28;20350;-77
2022/12/14 16:19:38;;;;;;;39.58;21.95;;;;;;;-1.55;88.96;100211.84;5066582;28;20075;-76
2022/12/14 16:22:18;;;;;;;38.35;19.88;;;;;;;-1.54;90.57;100218.81;5057815;28;20036;-73
2022/12/14 16:25:01;;;;;;;34.17;19.80;;;;;;;-1.53;90.77;100225.75;5072594;28;20031;-77
2022/12/14 16:27:28;;;;;;;35.95;19.92;;;;;;;-1.58;90.61;100224.59;5065321;28;20036;-76
2022/12/14 16:30:05;;;;;;;31.63;17.33;;;;;;;-1.58;89.71;100232.56;5068114;28;20025;-76
2022/12/14 16:32:31;;;;;;;28.63;16.98;;;;;;;-1.67;89.11;100237.81;5071376;28;20029;-76
2022/12/14 16:34:59;;;;;;;32.15;17.42;;;;;;;-1.67;91.95;100243.13;5071241;28;20026;-79
2022/12/14 16:37:25;;;;;;;28.98;16.92;;;;;;;-1.68;91.55;100237.97;5072026;28;20034;-79
2022/12/14 16:39:51;;;;;;;31.77;17.05;;;;;;;-1.70;92.81;100239.97;5071155;28;20024;-77
2022/12/14 16:42:26;;;;;;;31.48;16.70;;;;;;;-1.74;91.76;100235.97;5070877;28;20718;-76
2022/12/14 16:44:52;;;;;;;28.13;16.48;;;;;;;-1.82;91.50;100237.59;5059285;28;20111;-76
2022/12/14 16:47:27;;;;;;;27.40;16.38;;;;;;;-1.83;93.43;100235.97;5059827;28;20028;-75
2022/12/14 16:49:59;;;;;;;26.40;15.43;;;;;;;-1.86;91.41;100241.56;5082539;28;20128;-75
2022/12/14 16:52:30;;;;;;;27.70;15.70;;;;;;;-1.91;90.71;100251.81;5079912;28;20039;-75
2022/12/14 16:55:13;;;;;;;23.15;14.80;;;;;;;-1.91;93.69;100246.50;5072798;28;20029;-75
2022/12/14 16:57:49;;;;;;;24.95;14.43;;;;;;;-1.96;93.57;100248.81;5056190;28;20064;-75
2022/12/14 17:00:24;;;;;;;27.00;15.45;;;;;;;-1.99;93.98;100244.66;5069517;28;20037;-75
2022/12/14 17:02:57;;;;;;;25.08;14.88;;;;;;;-2.00;95.01;100250.94;5066917;28;20036;-74
2022/12/14 17:05:24;;;;;;;26.20;15.10;;;;;;;-2.04;94.83;100248.75;5072251;28;20533;-76
2022/12/14 17:07:50;;;;;;;29.77;15.07;;;;;;;-2.05;92.89;100261.19;5072200;28;20044;-74
2022/12/14 17:10:24;;;;;;;25.65;14.60;;;;;;;-2.10;93.70;100266.13;5071110;28;20032;-76
2022/12/14 17:12:50;;;;;;;24.92;14.75;;;;;;;-2.15;91.90;100273.72;5072043;28;20559;-76
2022/12/14 17:15:20;;;;;;;27.13;16.17;;;;;;;-2.19;92.97;100267.06;5072260;28;20045;-75
2022/12/14 17:17:50;;;;;;;36.05;14.93;;;;;;;-2.19;93.49;100261.75;5072278;28;20107;-76
2022/12/14 17:20:28;;;;;;;27.98;14.90;;;;;;;-2.16;94.43;100261.44;5070748;28;20078;-77
2022/12/14 17:22:57;;;;;;;24.63;14.63;;;;;;;-2.18;93.79;100263.44;5069813;28;20375;-77
2022/12/14 17:25:23;;;;;;;26.40;15.38;;;;;;;-2.19;94.32;100264.41;5071805;28;20352;-77
2022/12/14 17:27:48;;;;;;;26.60;16.08;;;;;;;-2.20;95.18;100266.25;5069731;28;20029;-77
2022/12/14 17:30:20;;;;;;;31.65;15.52;;;;;;;-2.22;92.27;100256.78;5068354;28;20031;-76
2022/12/14 17:32:46;;;;;;;26.10;15.77;;;;;;;-2.25;93.35;100265.03;5070311;28;20036;-77
2022/12/14 17:35:28;;;;;;;27.50;15.20;;;;;;;-2.26;94.41;100263.41;5072205;28;20028;-74
2022/12/14 17:37:54;;;;;;;24.35;15.25;;;;;;;-2.26;96.19;100263.41;5072230;28;20055;-78
2022/12/14 17:40:19;;;;;;;30.40;16.20;;;;;;;-2.27;95.77;100264.38;5064564;28;20032;-78
2022/12/14 17:42:51;;;;;;;25.65;15.00;;;;;;;-2.32;91.54;100268.31;5069805;28;20062;-78
2022/12/14 17:45:20;;;;;;;39.03;19.00;;;;;;;-2.34;94.32;100265.00;5069774;28;20024;-79
2022/12/14 17:47:45;;;;;;;35.28;19.77;;;;;;;-2.39;94.75;100258.50;5072005;28;20024;-75
2022/12/14 17:50:18;;;;;;;37.50;23.00;;;;;;;-2.44;93.04;100264.25;5068220;28;20021;-75
2022/12/14 17:52:44;;;;;;;35.65;21.50;;;;;;;-2.53;94.79;100265.19;5066023;28;20033;-75
2022/12/14 17:55:16;;;;;;;33.63;21.63;;;;;;;-2.55;96.34;100272.44;5074927;28;20471;-75
2022/12/14 17:57:42;;;;;;;35.35;20.85;;;;;;;-2.59;95.88;100269.28;5075669;28;20525;-73
2022/12/14 18:03:05;;;;;;;33.15;19.00;;;;;;;-2.58;96.34;100272.75;5069197;28;20098;-72
2022/12/14 18:05:31;;;;;;;33.28;19.90;;;;;;;-2.65;95.46;100266.44;5075621;28;20024;-72
2022/12/14 18:07:57;;;;;;;35.67;20.02;;;;;;;-2.64;97.60;100262.78;5074657;28;20523;-75
2022/12/14 18:10:22;;;;;;;30.08;17.65;;;;;;;-2.68;98.22;100263.06;5074619;28;20166;-76
2022/12/14 18:12:48;;;;;;;30.63;17.55;;;;;;;-2.67;99.00;100270.03;5074428;28;20367;-76
2022/12/14 18:15:34;;;;;;;32.25;18.55;;;;;;;-2.62;98.70;100274.06;5074100;28;20024;-75
2022/12/14 18:18:44;;;;;;;34.08;18.83;;;;;;;-2.67;96.52;100278.00;5078422;28;20032;-78
2022/12/14 18:21:22;;;;;;;35.63;20.45;;;;;;;-2.71;97.11;100284.56;5062076;28;20070;-77
2022/12/14 18:23:48;;;;;;;35.85;19.10;;;;;;;-2.76;96.44;100276.25;5071380;28;20037;-76
2022/12/14 18:26:19;;;;;;;35.00;21.75;;;;;;;-2.82;96.17;100268.06;5071819;28;20028;-76
2022/12/14 18:28:47;;;;;;;40.00;23.30;;;;;;;-2.89;96.00;100273.16;5073812;28;20099;-77
2022/12/14 18:31:29;;;;;;;41.85;24.60;;;;;;;-2.88;98.62;100265.06;5073636;28;20017;-77
2022/12/14 18:33:55;;;;;;;43.60;24.75;;;;;;;-2.88;100.00;100282.78;5077912;28;20040;-76
2022/12/14 18:36:21;;;;;;;48.90;28.95;;;;;;;-2.94;95.66;100281.56;5072994;28;20046;-76
2022/12/14 18:38:47;;;;;;;54.22;29.08;;;;;;;-2.99;95.41;100278.50;5073306;28;20071;-74
2022/12/14 18:41:18;;;;;;;50.25;29.50;;;;;;;-3.03;97.93;100278.00;5073027;28;20066;-71
2022/12/14 18:43:43;;;;;;;41.13;23.77;;;;;;;-3.09;97.47;100281.25;5073280;28;20075;-74
2022/12/14 18:46:09;;;;;;;37.53;22.30;;;;;;;-3.17;97.10;100289.13;5069023;28;20455;-75
2022/12/14 18:48:34;;;;;;;36.60;23.20;;;;;;;-3.19;97.65;100282.31;5074665;28;20029;-74
2022/12/14 18:51:00;;;;;;;44.58;23.70;;;;;;;-3.17;100.00;100288.25;5074520;28;20111;-73
2022/12/14 18:53:25;;;;;;;63.95;33.63;;;;;;;-3.18;100.00;100287.44;5075173;28;20078;-72
2022/12/14 18:55:51;;;;;;;58.55;32.78;;;;;;;-3.17;100.00;100285.63;5073613;28;20505;-73
2022/12/14 18:58:19;;;;;;;58.42;29.80;;;;;;;-3.18;100.00;100289.28;5085768;28;20074;-76
2022/12/14 19:00:45;;;;;;;43.38;24.83;;;;;;;-3.22;97.00;100286.06;5069038;28;20020;-74
2022/12/14 19:03:11;;;;;;;42.17;22.80;;;;;;;-3.26;97.81;100295.28;5066130;28;20020;-71
2022/12/14 19:05:36;;;;;;;42.38;22.52;;;;;;;-3.31;98.45;100295.72;5066267;28;20021;-73
2022/12/14 19:08:01;;;;;;;38.83;22.60;;;;;;;-3.35;100.00;100307.59;5067111;28;20036;-73
2022/12/14 19:10:31;;;;;;;40.20;21.52;;;;;;;-3.36;99.09;100305.13;5069831;28;20424;-73
2022/12/14 19:12:56;;;;;;;36.30;22.70;;;;;;;-3.38;100.00;100308.72;5068154;28;20455;-72
2022/12/14 19:15:25;;;;;;;37.08;24.13;;;;;;;-3.40;97.92;100308.06;5069406;28;20047;-73
2022/12/14 19:17:51;;;;;;;41.10;24.95;;;;;;;-3.45;99.49;100307.66;5070316;28;20039;-72
2022/12/14 19:20:18;;;;;;;39.40;23.98;;;;;;;-3.47;100.00;100309.63;5062167;28;20020;-73
2022/12/14 19:22:46;;;;;;;35.13;23.13;;;;;;;-3.51;98.51;100308.22;5064585;28;20036;-73
2022/12/14 19:25:12;;;;;;;33.88;20.45;;;;;;;-3.53;100.00;100294.34;5064251;28;20021;-72
2022/12/14 19:27:37;;;;;;;34.15;21.02;;;;;;;-3.53;100.00;100294.34;5068370;28;20060;-72
2022/12/14 19:30:06;;;;;;;34.70;20.73;;;;;;;-3.54;99.74;100300.59;5079899;28;20111;-71
2022/12/14 19:32:31;;;;;;;31.38;20.27;;;;;;;-3.56;100.00;100303.38;5068899;28;20029;-71
2022/12/14 19:34:57;;;;;;;32.85;20.67;;;;;;;-3.54;100.00;100299.78;5070007;28;20356;-73
2022/12/14 19:37:23;;;;;;;33.03;19.75;;;;;;;-3.53;100.00;100304.91;5072398;28;20055;-73
2022/12/14 19:39:49;;;;;;;35.97;22.02;;;;;;;-3.56;100.00;100310.50;5067335;28;20032;-72
2022/12/14 19:42:15;;;;;;;37.28;20.90;;;;;;;-3.56;100.00;100306.03;5068731;28;20029;-72
2022/12/14 19:44:40;;;;;;;33.90;20.75;;;;;;;-3.55;100.00;100320.09;5071459;28;20094;-73
2022/12/14 19:47:05;;;;;;;38.92;23.10;;;;;;;-3.55;100.00;100317.44;5070227;28;20048;-74
2022/12/14 19:49:31;;;;;;;33.28;20.25;;;;;;;-3.54;100.00;100321.75;5065095;28;20047;-73
2022/12/14 19:51:56;;;;;;;36.45;22.00;;;;;;;-3.55;100.00;100328.00;5067768;28;20022;-73
2022/12/14 19:54:21;;;;;;;37.42;20.90;;;;;;;-3.51;100.00;100329.41;5059751;28;20033;-73
2022/12/14 19:56:50;;;;;;;40.17;22.35;;;;;;;-3.53;100.00;100334.00;5070572;28;20035;-76
2022/12/14 19:59:16;;;;;;;38.45;21.88;;;;;;;-3.60;99.56;100325.81;5071438;28;20032;-72
2022/12/14 20:01:42;;;;;;;43.28;23.35;;;;;;;-3.66;99.62;100330.84;5065905;28;20032;-73
2022/12/14 20:04:07;;;;;;;46.13;24.08;;;;;;;-3.69;100.00;100336.44;5072105;28;20476;-74
2022/12/14 20:06:32;;;;;;;43.35;23.15;;;;;;;-3.75;100.00;100336.03;5072072;28;20044;-74
2022/12/14 20:09:00;;;;;;;41.97;22.58;;;;;;;-3.74;100.00;100335.06;5070500;28;20093;-74
2022/12/14 20:11:26;;;;;;;40.42;22.85;;;;;;;-3.74;100.00;100328.94;5070542;28;20032;-75
2022/12/14 20:13:52;;;;;;;39.75;22.15;;;;;;;-3.76;100.00;100334.38;5069820;28;20078;-75
2022/12/14 20:16:19;;;;;;;32.70;19.02;;;;;;;-3.80;100.00;100330.34;5071263;28;20086;-77
2022/12/14 20:18:45;;;;;;;32.00;18.42;;;;;;;-3.83;100.00;100338.56;5071052;28;20029;-76
2022/12/14 20:21:12;;;;;;;35.40;20.83;;;;;;;-3.94;100.00;100344.00;5071558;28;20040;-72
2022/12/14 20:23:38;;;;;;;34.60;19.05;;;;;;;-3.95;100.00;100345.00;5071581;28;20040;-74
2022/12/14 20:26:09;;;;;;;33.25;18.23;;;;;;;-3.95;100.00;100348.47;5071106;28;20104;-76
2022/12/14 20:28:35;;;;;;;32.30;17.23;;;;;;;-3.92;100.00;100350.00;5069412;28;20020;-75
2022/12/14 20:31:04;;;;;;;44.40;23.30;;;;;;;-3.93;100.00;100359.72;5071762;28;20071;-77
2022/12/14 20:33:29;;;;;;;47.83;23.48;;;;;;;-3.93;100.00;100359.72;5071525;28;20024;-76
2022/12/14 20:35:55;;;;;;;35.40;19.98;;;;;;;-3.90;100.00;100361.25;5068782;28;20082;-78
2022/12/14 20:38:20;;;;;;;34.13;19.23;;;;;;;-3.92;100.00;100364.03;5070393;28;20487;-76
2022/12/14 20:40:45;;;;;;;28.48;17.90;;;;;;;-3.90;100.00;100369.19;5071937;28;20029;-75
2022/12/14 20:43:11;;;;;;;27.50;16.83;;;;;;;-3.85;100.00;100374.91;5070542;28;20029;-76
2022/12/14 20:45:38;;;;;;;26.45;15.75;;;;;;;-3.83;100.00;100369.47;5070504;28;20069;-72
2022/12/14 20:48:04;;;;;;;28.60;15.93;;;;;;;-3.86;100.00;100381.16;5065940;28;20063;-72
2022/12/14 20:50:29;;;;;;;24.63;15.40;;;;;;;-3.88;100.00;100375.19;5060405;28;20024;-72
2022/12/14 20:52:54;;;;;;;26.25;14.38;;;;;;;-3.85;100.00;100379.34;5066975;28;20463;-72
2022/12/14 20:55:20;;;;;;;25.40;14.35;;;;;;;-3.88;100.00;100374.34;5065538;28;20029;-73
2022/12/14 20:57:45;;;;;;;26.63;14.93;;;;;;;-3.86;100.00;100377.69;5062636;28;20029;-76
2022/12/14 21:00:11;;;;;;;24.27;14.45;;;;;;;-3.88;100.00;100374.34;5051490;28;20021;-73
2022/12/14 21:02:36;;;;;;;25.50;14.90;;;;;;;-3.89;100.00;100378.81;5049961;28;20521;-75
2022/12/14 21:05:02;;;;;;;26.20;15.38;;;;;;;-3.96;100.00;100380.34;5072401;28;20024;-74
2022/12/14 21:07:29;;;;;;;38.03;17.25;;;;;;;-3.96;100.00;100382.97;5071815;28;20128;-76
2022/12/14 21:09:55;;;;;;;32.80;18.17;;;;;;;-3.97;100.00;100382.16;5077315;28;20028;-74
2022/12/14 21:12:20;;;;;;;35.10;18.13;;;;;;;-3.94;100.00;100387.16;5068151;28;20020;-77
2022/12/14 21:14:46;;;;;;;32.05;17.20;;;;;;;-3.96;100.00;100394.38;5067313;28;20107;-75
2022/12/14 21:17:13;;;;;;;28.50;16.98;;;;;;;-3.99;100.00;100393.84;5072323;28;20368;-74
2022/12/14 21:19:39;;;;;;;31.55;17.35;;;;;;;-4.00;100.00;100400.94;5072210;28;20058;-74
2022/12/14 21:22:07;;;;;;;31.90;18.27;;;;;;;-3.97;100.00;100410.38;5059178;28;20650;-77
2022/12/14 21:24:34;;;;;;;34.97;18.00;;;;;;;-3.98;100.00;100406.91;5071748;28;20371;-77
2022/12/14 21:27:00;;;;;;;36.13;20.58;;;;;;;-3.95;100.00;100405.81;5065229;28;20514;-77
2022/12/14 21:29:26;;;;;;;33.25;18.00;;;;;;;-3.97;100.00;100403.31;5054018;28;20037;-75
2022/12/14 21:31:52;;;;;;;33.35;19.00;;;;;;;-4.01;100.00;100404.56;5056254;28;20029;-75
2022/12/14 21:34:20;;;;;;;30.40;18.45;;;;;;;-4.09;100.00;100404.44;5054608;28;20094;-75
2022/12/14 21:36:45;;;;;;;32.25;18.17;;;;;;;-4.12;100.00;100404.72;5067757;28;20036;-73
2022/12/14 21:39:13;;;;;;;25.30;16.25;;;;;;;-4.13;100.00;100405.69;5056044;28;20028;-74
2022/12/14 21:44:29;;;;;;;26.58;15.50;;;;;;;-4.12;100.00;100416.13;5068523;28;20039;-76
2022/12/14 21:46:54;;;;;;;31.17;17.33;;;;;;;-4.14;100.00;100414.56;5072728;28;20035;-75
2022/12/14 21:49:20;;;;;;;31.33;16.63;;;;;;;-4.15;100.00;100421.69;5074326;28;20024;-73
2022/12/14 21:51:45;;;;;;;28.73;16.35;;;;;;;-4.13;100.00;100413.63;5075830;28;20452;-73
2022/12/14 21:54:15;;;;;;;27.90;15.85;;;;;;;-4.12;100.00;100425.84;5075789;28;20027;-74
2022/12/14 21:59:27;;;;;;;30.55;15.75;;;;;;;-4.10;100.00;100424.72;5074906;28;20545;-75
2022/12/14 22:01:54;;;;;;;28.25;16.58;;;;;;;-4.14;100.00;100418.03;5071728;28;20035;-76
2022/12/14 22:04:20;;;;;;;35.45;20.55;;;;;;;-4.18;100.00;100432.53;5075386;28;20493;-77
2022/12/14 22:06:46;;;;;;;30.52;17.10;;;;;;;-4.22;100.00;100431.13;5074371;28;20048;-77
2022/12/14 22:09:11;;;;;;;32.35;18.10;;;;;;;-4.32;100.00;100430.28;5075091;28;20033;-78
2022/12/14 22:11:36;;;;;;;27.73;16.60;;;;;;;-4.41;100.00;100431.13;5075325;28;20637;-74
2022/12/14 22:14:02;;;;;;;30.10;17.02;;;;;;;-4.47;100.00;100438.63;5080444;28;20035;-73
2022/12/14 22:16:29;;;;;;;27.70;16.35;;;;;;;-4.53;100.00;100447.13;5074203;28;20497;-74
2022/12/14 22:18:55;;;;;;;26.98;16.02;;;;;;;-4.56;100.00;100443.91;5073046;28;20033;-75
2022/12/14 22:21:20;;;;;;;28.95;16.42;;;;;;;-4.52;100.00;100440.00;5075329;28;20470;-74
2022/12/14 22:23:46;;;;;;;27.23;16.75;;;;;;;-4.47;100.00;100449.19;5075265;28;20028;-75
2022/12/14 22:26:11;;;;;;;28.75;16.08;;;;;;;-4.44;100.00;100445.44;5072847;28;20448;-75
2022/12/14 22:28:36;;;;;;;29.17;16.55;;;;;;;-4.43;100.00;100448.94;5072007;28;20486;-75
2022/12/14 22:31:03;;;;;;;30.45;17.30;;;;;;;-4.40;100.00;100451.28;5073831;28;20491;-72
2022/12/14 22:33:29;;;;;;;30.83;17.33;;;;;;;-4.39;100.00;100447.66;5074893;28;20024;-73
2022/12/14 22:35:55;;;;;;;35.88;19.80;;;;;;;-4.41;100.00;100452.25;5074182;28;20051;-74
2022/12/14 22:38:20;;;;;;;38.63;21.92;;;;;;;-4.41;100.00;100462.81;5073736;28;20107;-70
2022/12/14 22:40:45;;;;;;;33.33;18.55;;;;;;;-4.38;100.00;100463.38;5074304;28;20058;-72
2022/12/14 22:43:11;;;;;;;34.38;19.50;;;;;;;-4.36;100.00;100463.22;5075224;28;20033;-70
2022/12/14 22:45:36;;;;;;;35.83;20.10;;;;;;;-4.39;100.00;100472.28;5072909;28;20041;-71
2022/12/14 22:48:01;;;;;;;44.00;24.83;;;;;;;-4.43;100.00;100475.34;5072573;28;20058;-73
2022/12/14 22:50:27;;;;;;;41.60;22.88;;;;;;;-4.45;100.00;100478.94;5074588;28;20028;-72
2022/12/14 22:52:52;;;;;;;31.98;17.75;;;;;;;-4.46;100.00;100477.25;5074802;28;20462;-72
2022/12/14 22:55:18;;;;;;;29.48;16.67;;;;;;;-4.45;100.00;100468.38;5069453;28;20031;-73
2022/12/14 22:57:46;;;;;;;30.55;17.17;;;;;;;-4.43;100.00;100470.88;5073188;28;20032;-72
2022/12/14 23:00:17;;;;;;;37.72;20.25;;;;;;;-4.41;100.00;100465.47;5074588;28;20029;-74
2022/12/14 23:02:44;;;;;;;35.17;19.27;;;;;;;-4.41;100.00;100474.22;5068192;28;20029;-73
2022/12/14 23:05:10;;;;;;;34.00;20.17;;;;;;;-4.40;100.00;100469.78;5071673;28;20028;-73
2022/12/14 23:07:36;;;;;;;32.25;19.00;;;;;;;-4.41;100.00;100483.94;5073043;28;20051;-74
